Warner, New Hampshire
Current Conditions -  °F | °C
As of 12:26 AM on Thursday 23 Oct 2014 (Local Time) from KCON Reporting Station
Light Rain Light Rain  
Wind Chill:   Ceiling: 1500
Heat Index:   Visibility: 7mi
Dew Point:   Wind: 15mph
Humidity: 93%   Direction: 10°N
Pressure: 29.9"   Gusts: 24mph
Location:  43.28°N, 71.82°W
Report Text: KCON 230426Z AUTO 01013G21KT 7SM -RA BKN015 BKN029 OVC049 08/07 A2990 RMK AO2 P0007 T00830072
Loading
Personal Weather Stations






























Interactive Weather Map
Tropical Storm Tracking
New forecast layout! Learn more

10-Day Weather Forecast

Advertisements
Track Severe Weather on mobile